createdAt,value
2023-04-09T00:00:40.597Z,92.77
2023-04-09T00:03:42.799Z,92.90
2023-04-09T00:06:45.195Z,92.79
2023-04-09T00:09:47.268Z,92.72
2023-04-09T00:12:49.477Z,91.69
2023-04-09T00:15:52.609Z,91.36
2023-04-09T00:18:54.762Z,91.10
2023-04-09T00:21:57.088Z,91.19
2023-04-09T00:24:59.214Z,92.32
2023-04-09T00:28:02.693Z,91.88
2023-04-09T00:31:05.837Z,90.46
2023-04-09T00:34:08.005Z,91.27
2023-04-09T00:37:10.019Z,91.61
2023-04-09T00:40:13.475Z,92.47
2023-04-09T00:43:16.252Z,91.82
2023-04-09T00:46:18.990Z,92.01
2023-04-09T00:49:22.781Z,91.80
2023-04-09T00:52:25.970Z,92.13
2023-04-09T00:55:29.329Z,91.06
2023-04-09T00:58:31.688Z,91.14
2023-04-09T01:01:33.930Z,90.76
2023-04-09T01:04:37.027Z,91.04
2023-04-09T01:07:46.188Z,91.33
2023-04-09T01:11:03.659Z,91.77
2023-04-09T01:14:19.982Z,91.99
2023-04-09T01:17:33.846Z,91.22
2023-04-09T01:20:40.965Z,90.41
2023-04-09T01:24:01.439Z,90.47
2023-04-09T01:27:13.286Z,89.67
2023-04-09T01:30:27.201Z,89.56
2023-04-09T01:33:31.505Z,88.70
2023-04-09T01:36:35.992Z,89.42
2023-04-09T01:39:39.269Z,89.20
2023-04-09T01:42:42.516Z,89.63
2023-04-09T01:45:45.964Z,89.59
2023-04-09T01:48:48.885Z,88.82
2023-04-09T01:51:51.688Z,87.64
2023-04-09T01:54:53.787Z,87.71
2023-04-09T01:57:55.923Z,87.06
2023-04-09T02:01:23.844Z,86.17
2023-04-09T02:04:40.815Z,85.93
2023-04-09T02:07:46.330Z,86.70
2023-04-09T02:10:55.658Z,86.23
2023-04-09T02:13:58.908Z,86.17
2023-04-09T02:17:01.947Z,86.66
2023-04-09T02:20:04.651Z,86.66
2023-04-09T02:23:06.755Z,86.31
2023-04-09T02:26:08.927Z,85.95
2023-04-09T02:29:11.167Z,85.92
2023-04-09T02:32:13.400Z,84.84
2023-04-09T02:35:15.717Z,84.54
2023-04-09T02:38:17.872Z,85.71
2023-04-09T02:41:20.634Z,84.33
2023-04-09T02:44:24.322Z,84.53
2023-04-09T02:47:27.442Z,84.94
2023-04-09T02:50:29.608Z,84.99
2023-04-09T02:53:31.932Z,84.65
2023-04-09T02:56:34.242Z,84.28
2023-04-09T02:59:36.378Z,84.41
2023-04-09T03:02:38.654Z,83.61
2023-04-09T03:05:40.833Z,83.95
2023-04-09T03:08:43.103Z,83.43
2023-04-09T03:11:45.138Z,82.92
2023-04-09T03:14:47.220Z,82.64
2023-04-09T03:17:49.501Z,83.71
2023-04-09T03:20:51.808Z,82.68
2023-04-09T03:23:53.957Z,82.39
2023-04-09T03:26:57.673Z,83.16
2023-04-09T03:30:00.490Z,82.20
2023-04-09T03:33:10.120Z,81.90
2023-04-09T03:36:28.110Z,82.86
2023-04-09T03:39:34.115Z,81.46
2023-04-09T03:42:37.579Z,81.23
2023-04-09T03:45:41.534Z,81.79
2023-04-09T03:48:55.051Z,81.59
2023-04-09T03:52:09.344Z,80.99
2023-04-09T03:55:16.312Z,81.31
2023-04-09T03:58:18.927Z,80.36
2023-04-09T04:01:21.628Z,81.02
2023-04-09T04:04:34.089Z,80.51
2023-04-09T04:07:39.569Z,80.97
2023-04-09T04:10:46.156Z,80.12
2023-04-09T04:13:51.046Z,80.49
2023-04-09T04:16:53.377Z,80.47
2023-04-09T04:19:58.321Z,80.63
2023-04-09T04:23:00.517Z,79.85
2023-04-09T04:26:10.174Z,79.44
2023-04-09T04:29:12.762Z,79.86
2023-04-09T04:32:27.408Z,79.52
2023-04-09T04:35:30.733Z,79.27
2023-04-09T04:38:36.962Z,78.69
2023-04-09T04:41:42.974Z,78.13
2023-04-09T04:44:52.264Z,78.16
2023-04-09T04:48:24.005Z,82.94
2023-04-09T04:51:29.334Z,84.49
2023-04-09T04:54:42.864Z,87.13
2023-04-09T04:57:53.420Z,92.57
2023-04-09T05:01:01.321Z,93.78
2023-04-09T05:04:04.778Z,93.37
2023-04-09T05:07:09.159Z,95.31
2023-04-09T05:10:21.979Z,96.07
2023-04-09T05:13:25.081Z,95.87
2023-04-09T05:16:28.130Z,97.27
2023-04-09T05:19:37.474Z,97.17
2023-04-09T05:22:43.066Z,100.00
2023-04-09T05:25:51.658Z,100.00
2023-04-09T05:29:11.569Z,100.00
2023-04-09T05:32:14.127Z,100.00
2023-04-09T05:35:16.224Z,100.00
2023-04-09T05:38:19.601Z,100.00
2023-04-09T05:41:29.927Z,100.00
2023-04-09T05:44:50.609Z,100.00
2023-04-09T05:47:56.144Z,100.00
2023-04-09T05:51:01.020Z,100.00
2023-04-09T05:54:04.350Z,100.00
2023-04-09T05:57:11.508Z,100.00
2023-04-09T06:00:18.606Z,100.00
2023-04-09T06:03:25.317Z,100.00
2023-04-09T06:06:34.092Z,100.00
2023-04-09T06:09:39.695Z,100.00
2023-04-09T06:12:45.566Z,100.00
2023-04-09T06:15:48.415Z,100.00
2023-04-09T06:18:54.325Z,100.00
2023-04-09T06:21:59.017Z,100.00
2023-04-09T06:25:01.275Z,99.61
2023-04-09T06:28:03.415Z,94.49
2023-04-09T06:31:05.533Z,100.00
2023-04-09T06:34:07.949Z,100.00
2023-04-09T06:37:10.213Z,100.00
2023-04-09T06:40:12.685Z,100.00
2023-04-09T06:43:14.910Z,100.00
2023-04-09T06:46:26.950Z,100.00
2023-04-09T06:49:29.258Z,100.00
2023-04-09T06:52:31.788Z,100.00
2023-04-09T06:55:33.934Z,97.98
2023-04-09T06:58:36.476Z,96.79
2023-04-09T07:01:41.157Z,95.97
2023-04-09T07:04:44.103Z,94.44
2023-04-09T07:07:47.089Z,91.30
2023-04-09T07:10:49.717Z,89.61
2023-04-09T07:13:52.851Z,89.25
2023-04-09T07:16:55.388Z,88.12
2023-04-09T07:19:57.597Z,88.98
2023-04-09T07:23:01.221Z,89.01
2023-04-09T07:26:06.650Z,87.40
2023-04-09T07:29:08.735Z,86.96
2023-04-09T07:32:10.925Z,85.39
2023-04-09T07:35:13.442Z,84.37
2023-04-09T07:38:16.520Z,84.96
2023-04-09T07:41:18.840Z,84.98
2023-04-09T07:44:20.908Z,84.60
2023-04-09T07:47:24.358Z,83.96
2023-04-09T07:50:27.222Z,83.02
2023-04-09T07:53:29.471Z,81.38
2023-04-09T07:56:35.768Z,80.65
2023-04-09T07:59:38.168Z,79.33
2023-04-09T08:02:40.560Z,78.50
2023-04-09T08:05:44.391Z,78.27
2023-04-09T08:08:47.601Z,78.32
2023-04-09T08:11:50.537Z,77.80
2023-04-09T08:14:52.983Z,77.73
2023-04-09T08:17:55.147Z,77.54
2023-04-09T08:20:57.825Z,77.30
2023-04-09T08:24:04.761Z,77.08
2023-04-09T08:27:06.887Z,76.01
2023-04-09T08:30:09.964Z,76.51
2023-04-09T08:33:12.248Z,76.43
2023-04-09T08:36:16.204Z,75.70
2023-04-09T08:39:21.289Z,75.39
2023-04-09T08:42:25.851Z,75.98
2023-04-09T08:45:28.290Z,75.10
2023-04-09T08:48:30.511Z,75.84
2023-04-09T08:51:32.771Z,75.06
2023-04-09T08:54:35.697Z,75.76
2023-04-09T08:57:42.083Z,75.07
2023-04-09T09:00:44.794Z,75.22
2023-04-09T09:04:04.634Z,75.54
2023-04-09T09:07:07.548Z,74.19
2023-04-09T09:10:10.043Z,73.75
2023-04-09T09:13:26.325Z,73.44
2023-04-09T09:16:29.038Z,73.84
2023-04-09T09:19:36.701Z,73.70
2023-04-09T09:23:00.128Z,73.09
2023-04-09T09:26:14.410Z,73.16
2023-04-09T09:29:17.659Z,73.34
2023-04-09T09:32:22.198Z,73.02
2023-04-09T09:35:24.510Z,72.22
2023-04-09T09:38:27.200Z,71.74
2023-04-09T09:41:29.558Z,72.41
2023-04-09T09:44:33.478Z,73.41
2023-04-09T09:47:36.841Z,72.88
2023-04-09T09:50:48.451Z,72.25
2023-04-09T09:53:55.763Z,73.68
2023-04-09T09:57:04.874Z,73.42
2023-04-09T10:00:12.696Z,74.26
2023-04-09T10:03:20.211Z,74.86
2023-04-09T10:06:23.416Z,73.57
2023-04-09T10:09:28.227Z,73.12
2023-04-09T10:12:32.844Z,72.66
2023-04-09T10:15:35.118Z,74.35
2023-04-09T10:18:37.265Z,74.07
2023-04-09T10:21:57.890Z,75.73
2023-04-09T10:25:00.195Z,75.72
2023-04-09T10:28:15.716Z,76.29
2023-04-09T10:31:21.258Z,75.18
2023-04-09T10:34:30.888Z,74.55
2023-04-09T10:37:33.039Z,77.01
2023-04-09T10:40:47.418Z,76.34
2023-04-09T10:43:51.071Z,77.29
2023-04-09T10:46:56.905Z,77.57
2023-04-09T10:49:59.130Z,78.66
2023-04-09T10:53:04.117Z,78.78
2023-04-09T10:56:16.437Z,78.21
2023-04-09T10:59:18.789Z,78.45
2023-04-09T11:02:23.938Z,78.48
2023-04-09T11:05:40.045Z,76.82
2023-04-09T11:08:44.572Z,78.17
2023-04-09T11:11:54.950Z,75.67
2023-04-09T11:14:57.623Z,75.76
2023-04-09T11:18:03.128Z,73.98
2023-04-09T11:21:08.180Z,76.15
2023-04-09T11:24:12.783Z,75.48
2023-04-09T11:27:17.331Z,75.05
2023-04-09T11:30:20.933Z,74.99
2023-04-09T11:33:34.766Z,74.17
2023-04-09T11:36:38.377Z,74.04
2023-04-09T11:39:49.112Z,73.35
2023-04-09T11:42:55.658Z,74.15
2023-04-09T11:46:02.284Z,73.58
2023-04-09T11:49:05.782Z,72.74
2023-04-09T11:52:09.833Z,74.22
2023-04-09T11:55:13.929Z,73.25
2023-04-09T11:58:16.940Z,72.80
2023-04-09T12:01:22.576Z,73.31
2023-04-09T12:04:25.671Z,73.11
2023-04-09T12:07:33.005Z,72.47
2023-04-09T12:10:53.729Z,72.96
2023-04-09T12:14:00.339Z,73.40
2023-04-09T12:17:06.716Z,73.71
2023-04-09T12:20:12.244Z,72.27
2023-04-09T12:23:17.421Z,73.25
2023-04-09T12:26:21.217Z,72.77
2023-04-09T12:29:23.307Z,73.72
2023-04-09T12:32:28.129Z,73.83
2023-04-09T12:35:32.926Z,73.63
2023-04-09T12:38:35.526Z,73.41
2023-04-09T12:41:39.323Z,73.62
2023-04-09T12:44:45.776Z,74.32
2023-04-09T12:47:54.500Z,74.58
2023-04-09T12:51:01.985Z,73.96
2023-04-09T12:54:13.052Z,72.97
2023-04-09T12:57:16.000Z,73.22
2023-04-09T13:00:18.511Z,71.12
2023-04-09T13:03:22.190Z,72.33
2023-04-09T13:06:25.380Z,71.91
2023-04-09T13:09:29.493Z,71.85
2023-04-09T13:12:33.799Z,70.74
2023-04-09T13:15:44.083Z,71.15
2023-04-09T13:18:46.767Z,70.52
2023-04-09T13:21:53.380Z,70.25
2023-04-09T13:24:57.583Z,69.86
2023-04-09T13:28:01.861Z,70.98
2023-04-09T13:31:04.958Z,71.47
2023-04-09T13:34:10.266Z,71.55
2023-04-09T13:37:12.765Z,71.66
2023-04-09T13:40:14.912Z,71.47
2023-04-09T13:43:17.082Z,73.83
2023-04-09T13:46:19.559Z,74.97
2023-04-09T13:49:22.297Z,75.24
2023-04-09T13:52:29.685Z,91.36
2023-04-09T13:55:37.718Z,87.75
2023-04-09T13:58:40.572Z,85.75
2023-04-09T14:01:42.790Z,84.41
2023-04-09T14:04:45.777Z,82.79
2023-04-09T14:07:48.413Z,81.71
2023-04-09T14:10:51.409Z,83.02
2023-04-09T14:13:56.234Z,81.68
2023-04-09T14:16:58.433Z,81.43
2023-04-09T14:20:06.202Z,81.11
2023-04-09T14:24:00.563Z,82.25
2023-04-09T14:27:03.348Z,81.41
2023-04-09T14:30:10.145Z,80.50
2023-04-09T14:33:15.344Z,80.89
2023-04-09T14:36:17.881Z,80.89
2023-04-09T14:39:19.860Z,80.74
2023-04-09T14:42:22.143Z,83.36
2023-04-09T14:45:24.308Z,87.13
2023-04-09T14:48:26.594Z,89.31
2023-04-09T14:51:32.856Z,91.38
2023-04-09T14:54:37.885Z,92.75
2023-04-09T14:57:40.788Z,91.37
2023-04-09T15:00:45.051Z,90.30
2023-04-09T15:03:47.908Z,88.58
2023-04-09T15:06:52.590Z,84.04
2023-04-09T15:09:54.899Z,83.07
2023-04-09T15:12:57.008Z,81.96
2023-04-09T15:15:59.246Z,78.76
2023-04-09T15:19:02.965Z,77.09
2023-04-09T15:22:08.392Z,75.90
2023-04-09T15:25:14.984Z,80.41
2023-04-09T15:28:19.287Z,80.88
2023-04-09T15:31:21.859Z,79.50
2023-04-09T15:34:25.947Z,79.97
2023-04-09T15:37:28.014Z,78.74
2023-04-09T15:40:32.113Z,80.65
2023-04-09T15:43:34.293Z,81.17
2023-04-09T15:46:38.371Z,79.92
2023-04-09T15:49:40.833Z,80.18
2023-04-09T15:52:43.153Z,80.22
2023-04-09T15:55:45.576Z,80.64
2023-04-09T15:58:47.781Z,79.33
2023-04-09T16:01:49.973Z,79.26
2023-04-09T16:04:53.279Z,77.75
2023-04-09T16:07:58.293Z,78.23
2023-04-09T16:11:01.826Z,77.23
2023-04-09T16:14:05.915Z,78.36
2023-04-09T16:17:08.230Z,77.64
2023-04-09T16:20:10.829Z,77.34
2023-04-09T16:23:13.164Z,77.34
2023-04-09T16:26:16.318Z,77.02
2023-04-09T16:29:18.497Z,77.26
2023-04-09T16:32:22.263Z,76.94
2023-04-09T16:35:24.406Z,76.82
2023-04-09T16:38:27.731Z,76.78
2023-04-09T16:41:30.095Z,76.52
2023-04-09T16:44:32.175Z,76.87
2023-04-09T16:47:34.374Z,76.67
2023-04-09T16:50:46.143Z,76.52
2023-04-09T16:53:50.525Z,78.15
2023-04-09T16:56:53.450Z,77.49
2023-04-09T16:59:57.986Z,77.23
2023-04-09T17:03:00.751Z,77.50
2023-04-09T17:06:06.862Z,78.31
2023-04-09T17:09:09.976Z,78.01
2023-04-09T17:12:21.885Z,77.88
2023-04-09T17:15:26.054Z,78.16
2023-04-09T17:18:32.389Z,78.83
2023-04-09T17:21:39.477Z,78.55
2023-04-09T17:24:55.331Z,79.25
2023-04-09T17:28:02.652Z,79.16
2023-04-09T17:31:16.223Z,80.19
2023-04-09T17:34:18.581Z,80.06
2023-04-09T17:37:20.758Z,80.08
2023-04-09T17:40:33.775Z,80.20
2023-04-09T17:43:37.362Z,79.74
2023-04-09T17:46:39.923Z,79.84
2023-04-09T17:49:42.653Z,80.51
2023-04-09T17:52:49.708Z,81.16
2023-04-09T17:55:52.542Z,81.23
2023-04-09T17:58:55.187Z,81.17
2023-04-09T18:01:59.138Z,81.05
2023-04-09T18:05:04.684Z,82.19
2023-04-09T18:08:07.547Z,80.70
2023-04-09T18:11:13.101Z,80.58
2023-04-09T18:14:16.221Z,81.51
2023-04-09T18:17:19.313Z,81.40
2023-04-09T18:20:23.516Z,81.02
2023-04-09T18:23:27.244Z,81.46
2023-04-09T18:26:30.496Z,81.99
2023-04-09T18:29:34.297Z,82.85
2023-04-09T18:32:36.385Z,81.77
2023-04-09T18:35:40.987Z,80.86
2023-04-09T18:38:49.086Z,81.58
2023-04-09T18:41:51.213Z,85.24
2023-04-09T18:44:55.596Z,87.27
2023-04-09T18:47:59.502Z,85.25
2023-04-09T18:51:03.334Z,84.19
2023-04-09T18:54:06.015Z,83.57
2023-04-09T18:57:08.827Z,83.61
2023-04-09T19:00:11.577Z,83.00
2023-04-09T19:03:15.012Z,84.62
2023-04-09T19:06:20.096Z,85.07
2023-04-09T19:09:22.417Z,87.34
2023-04-09T19:12:27.077Z,88.96
2023-04-09T19:15:29.704Z,89.01
2023-04-09T19:18:34.649Z,89.24
2023-04-09T19:21:37.013Z,90.33
2023-04-09T19:24:39.382Z,90.53
2023-04-09T19:27:44.578Z,89.50
2023-04-09T19:30:50.517Z,89.08
2023-04-09T19:33:56.106Z,88.24
2023-04-09T19:36:59.570Z,87.38
2023-04-09T19:40:04.682Z,84.78
2023-04-09T19:43:07.057Z,84.92
2023-04-09T19:46:12.090Z,82.53
2023-04-09T19:49:15.459Z,81.43
2023-04-09T19:52:17.687Z,80.99
2023-04-09T19:55:20.144Z,80.05
2023-04-09T19:58:22.211Z,79.16
2023-04-09T20:01:28.598Z,78.44
2023-04-09T20:04:31.174Z,78.10
2023-04-09T20:07:33.178Z,76.99
2023-04-09T20:10:42.937Z,77.61
2023-04-09T20:13:47.211Z,77.20
2023-04-09T20:16:50.313Z,76.79
2023-04-09T20:19:52.537Z,76.67
2023-04-09T20:22:56.409Z,75.04
2023-04-09T20:26:00.447Z,75.96
2023-04-09T20:29:02.798Z,76.08
2023-04-09T20:32:05.070Z,76.55
2023-04-09T20:35:09.514Z,76.82
2023-04-09T20:38:29.252Z,77.24
2023-04-09T20:41:34.058Z,76.75
2023-04-09T20:44:37.941Z,76.25
2023-04-09T20:47:40.098Z,76.34
2023-04-09T20:50:42.752Z,75.17
2023-04-09T20:53:45.664Z,75.23
2023-04-09T20:56:47.663Z,75.53
2023-04-09T20:59:50.331Z,75.38
2023-04-09T21:02:52.618Z,75.34
2023-04-09T21:05:55.821Z,74.15
2023-04-09T21:08:59.671Z,73.54
2023-04-09T21:12:06.238Z,74.23
2023-04-09T21:15:08.840Z,73.63
2023-04-09T21:18:11.126Z,72.79
2023-04-09T21:21:14.469Z,73.87
2023-04-09T21:24:16.913Z,73.87
2023-04-09T21:27:20.210Z,73.85
2023-04-09T21:30:22.394Z,72.56
2023-04-09T21:33:26.340Z,71.82
2023-04-09T21:36:29.799Z,72.92
2023-04-09T21:39:32.027Z,72.11
2023-04-09T21:42:34.084Z,72.91
2023-04-09T21:45:36.736Z,72.24
2023-04-09T21:48:40.767Z,72.21
2023-04-09T21:51:45.708Z,73.09
2023-04-09T21:54:47.865Z,72.87
2023-04-09T21:57:52.996Z,72.91
2023-04-09T22:00:55.025Z,72.17
2023-04-09T22:03:58.087Z,72.08
2023-04-09T22:07:00.239Z,71.42
2023-04-09T22:10:02.393Z,71.77
2023-04-09T22:13:04.468Z,72.60
2023-04-09T22:16:07.424Z,72.89
2023-04-09T22:19:09.688Z,72.28
2023-04-09T22:22:13.655Z,72.27
2023-04-09T22:25:15.902Z,73.11
2023-04-09T22:28:18.325Z,71.85
2023-04-09T22:31:21.259Z,71.63
2023-04-09T22:34:23.585Z,72.13
2023-04-09T22:37:26.134Z,73.36
2023-04-09T22:40:28.161Z,73.02
2023-04-09T22:43:30.342Z,73.35
2023-04-09T22:46:34.788Z,73.45
2023-04-09T22:49:36.936Z,73.35
2023-04-09T22:52:38.909Z,72.88
2023-04-09T22:55:41.075Z,72.70
2023-04-09T22:58:43.285Z,73.07
2023-04-09T23:01:46.468Z,73.35
2023-04-09T23:04:48.681Z,73.20
2023-04-09T23:07:51.496Z,72.88
2023-04-09T23:10:54.325Z,72.79
2023-04-09T23:13:56.994Z,72.71
2023-04-09T23:16:59.112Z,72.68
2023-04-09T23:20:01.582Z,73.27
2023-04-09T23:23:03.811Z,72.79
2023-04-09T23:26:06.621Z,73.09
2023-04-09T23:29:08.750Z,72.44
2023-04-09T23:32:10.958Z,72.47
2023-04-09T23:35:13.457Z,72.80
2023-04-09T23:38:16.068Z,72.19
2023-04-09T23:41:18.186Z,71.70
2023-04-09T23:44:20.795Z,71.62
2023-04-09T23:47:22.998Z,72.01
2023-04-09T23:50:25.100Z,73.17
2023-04-09T23:53:27.176Z,71.60
2023-04-09T23:56:29.727Z,71.85
2023-04-09T23:59:35.485Z,71.96
